createdAt,value
2023-04-29T00:01:23.564Z,13.57
2023-04-29T00:03:30.626Z,13.56
2023-04-29T00:05:36.403Z,13.56
2023-04-29T00:07:44.292Z,13.55
2023-04-29T00:09:49.166Z,13.55
2023-04-29T00:11:54.084Z,13.54
2023-04-29T00:13:58.958Z,13.53
2023-04-29T00:16:04.097Z,13.51
2023-04-29T00:18:09.619Z,13.48
2023-04-29T00:20:15.681Z,13.47
2023-04-29T00:22:22.176Z,13.44
2023-04-29T00:24:30.292Z,13.41
2023-04-29T00:26:35.563Z,13.36
2023-04-29T00:28:40.494Z,13.32
2023-04-29T00:30:45.728Z,13.27
2023-04-29T00:32:50.407Z,13.23
2023-04-29T00:34:55.581Z,13.22
2023-04-29T00:37:00.957Z,13.24
2023-04-29T00:39:08.866Z,13.27
2023-04-29T00:41:16.889Z,13.34
2023-04-29T00:43:21.859Z,13.37
2023-04-29T00:45:27.806Z,13.38
2023-04-29T00:47:35.134Z,13.37
2023-04-29T00:49:40.694Z,13.35
2023-04-29T00:51:45.889Z,13.32
2023-04-29T00:53:51.287Z,13.29
2023-04-29T00:55:56.470Z,13.27
2023-04-29T00:58:04.516Z,13.27
2023-04-29T01:00:14.114Z,13.25
2023-04-29T01:02:20.432Z,13.25
2023-04-29T01:04:25.644Z,13.26
2023-04-29T01:06:36.216Z,13.23
2023-04-29T01:08:54.352Z,13.18
2023-04-29T01:11:11.043Z,13.11
2023-04-29T01:13:22.006Z,13.11
2023-04-29T01:15:36.117Z,13.14
2023-04-29T01:17:47.434Z,13.18
2023-04-29T01:19:56.226Z,13.19
2023-04-29T01:22:01.699Z,13.20
2023-04-29T01:24:10.294Z,13.22
2023-04-29T01:26:16.011Z,13.24
2023-04-29T01:28:49.423Z,13.26
2023-04-29T01:31:03.893Z,13.28
2023-04-29T01:33:17.633Z,13.20
2023-04-29T01:35:41.997Z,13.19
2023-04-29T01:37:59.202Z,13.16
2023-04-29T01:40:15.177Z,13.15
2023-04-29T01:42:32.846Z,13.16
2023-04-29T01:44:42.488Z,13.13
2023-04-29T01:46:55.043Z,13.07
2023-04-29T01:49:04.942Z,12.98
2023-04-29T01:51:10.159Z,12.93
2023-04-29T01:53:16.086Z,12.96
2023-04-29T01:55:24.789Z,13.00
2023-04-29T01:57:48.431Z,13.01
2023-04-29T02:00:12.813Z,13.04
2023-04-29T02:02:29.004Z,13.07
2023-04-29T02:04:43.903Z,13.03
2023-04-29T02:06:48.879Z,13.07
2023-04-29T02:08:55.999Z,13.10
2023-04-29T02:11:03.505Z,13.13
2023-04-29T02:13:14.957Z,13.17
2023-04-29T02:15:20.823Z,13.21
2023-04-29T02:17:25.606Z,13.19
2023-04-29T02:19:30.510Z,13.20
2023-04-29T02:21:35.544Z,13.17
2023-04-29T02:23:40.973Z,13.12
2023-04-29T02:25:45.860Z,13.18
2023-04-29T02:27:53.463Z,13.23
2023-04-29T02:29:58.486Z,13.28
2023-04-29T02:32:03.898Z,13.35
2023-04-29T02:34:08.923Z,13.42
2023-04-29T02:36:13.897Z,13.42
2023-04-29T02:38:18.805Z,13.44
2023-04-29T02:40:25.832Z,13.42
2023-04-29T02:42:30.850Z,13.43
2023-04-29T02:44:38.872Z,13.45
2023-04-29T02:46:45.975Z,13.41
2023-04-29T02:48:50.948Z,13.30
2023-04-29T02:50:56.042Z,13.21
2023-04-29T02:53:01.035Z,13.18
2023-04-29T02:55:06.077Z,13.18
2023-04-29T02:57:11.575Z,13.18
2023-04-29T02:59:17.297Z,13.26
2023-04-29T03:01:24.855Z,13.33
2023-04-29T03:03:30.234Z,13.40
2023-04-29T03:05:36.201Z,13.44
2023-04-29T03:07:41.613Z,13.50
2023-04-29T03:09:46.715Z,13.53
2023-04-29T03:11:51.855Z,13.50
2023-04-29T03:13:57.659Z,13.53
2023-04-29T03:16:02.402Z,13.47
2023-04-29T03:18:10.454Z,13.52
2023-04-29T03:20:15.915Z,13.59
2023-04-29T03:22:20.821Z,13.66
2023-04-29T03:24:26.517Z,13.69
2023-04-29T03:26:31.384Z,13.74
2023-04-29T03:28:36.409Z,13.73
2023-04-29T03:30:44.123Z,13.79
2023-04-29T03:32:49.170Z,13.77
2023-04-29T03:34:57.910Z,13.75
2023-04-29T03:37:10.716Z,13.76
2023-04-29T03:39:18.942Z,13.78
2023-04-29T03:41:24.345Z,13.81
2023-04-29T03:43:29.492Z,13.80
2023-04-29T03:45:34.172Z,13.71
2023-04-29T03:47:39.522Z,13.66
2023-04-29T03:49:44.741Z,13.59
2023-04-29T03:51:52.216Z,13.56
2023-04-29T03:53:59.157Z,13.61
2023-04-29T03:56:04.821Z,13.63
2023-04-29T03:58:09.782Z,13.66
2023-04-29T04:00:16.113Z,13.68
2023-04-29T04:02:29.079Z,13.62
2023-04-29T04:04:34.200Z,13.52
2023-04-29T04:06:39.453Z,13.53
2023-04-29T04:08:46.798Z,13.46
2023-04-29T04:10:55.953Z,13.51
2023-04-29T04:13:19.300Z,13.54
2023-04-29T04:15:24.525Z,13.53
2023-04-29T04:17:29.148Z,13.53
2023-04-29T04:19:34.258Z,13.55
2023-04-29T04:21:39.161Z,13.64
2023-04-29T04:23:51.499Z,13.55
2023-04-29T04:26:00.153Z,13.49
2023-04-29T04:28:37.650Z,13.51
2023-04-29T04:30:49.737Z,13.55
2023-04-29T04:32:54.720Z,13.61
2023-04-29T04:34:59.542Z,13.57
2023-04-29T04:37:05.032Z,13.56
2023-04-29T04:39:13.325Z,13.60
2023-04-29T04:41:18.228Z,13.60
2023-04-29T04:43:25.363Z,13.54
2023-04-29T04:45:32.476Z,13.46
2023-04-29T04:47:37.741Z,13.39
2023-04-29T04:49:50.280Z,13.38
2023-04-29T04:51:55.466Z,13.37
2023-04-29T04:54:00.359Z,13.37
2023-04-29T04:56:11.087Z,13.35
2023-04-29T04:58:16.696Z,13.34
2023-04-29T05:00:21.426Z,13.28
2023-04-29T05:02:27.047Z,13.28
2023-04-29T05:04:32.505Z,13.32
2023-04-29T05:06:37.870Z,13.34
2023-04-29T05:08:44.976Z,13.44
2023-04-29T05:10:51.824Z,13.45
2023-04-29T05:12:59.552Z,13.49
2023-04-29T05:15:04.640Z,13.56
2023-04-29T05:17:11.512Z,13.61
2023-04-29T05:19:16.514Z,13.68
2023-04-29T05:21:21.266Z,13.65
2023-04-29T05:23:26.251Z,13.69
2023-04-29T05:25:31.398Z,13.73
2023-04-29T05:27:36.910Z,13.79
2023-04-29T05:29:47.846Z,13.87
2023-04-29T05:31:53.069Z,13.95
2023-04-29T05:33:57.838Z,13.99
2023-04-29T05:36:03.566Z,13.99
2023-04-29T05:38:09.592Z,14.01
2023-04-29T05:40:17.801Z,14.04
2023-04-29T05:42:23.594Z,14.02
2023-04-29T05:44:29.336Z,14.03
2023-04-29T05:46:37.052Z,13.99
2023-04-29T05:48:41.984Z,13.93
2023-04-29T05:50:48.811Z,13.94
2023-04-29T05:52:54.885Z,13.98
2023-04-29T05:55:00.368Z,13.95
2023-04-29T05:57:05.633Z,13.89
2023-04-29T05:59:10.671Z,14.00
2023-04-29T06:01:15.555Z,13.99
2023-04-29T06:03:23.495Z,14.06
2023-04-29T06:05:36.044Z,14.04
2023-04-29T06:08:08.227Z,14.19
2023-04-29T06:10:24.928Z,14.23
2023-04-29T06:12:29.975Z,14.13
2023-04-29T06:14:36.658Z,14.02
2023-04-29T06:16:42.613Z,14.00
2023-04-29T06:18:50.449Z,14.01
2023-04-29T06:20:55.428Z,13.95
2023-04-29T06:23:00.573Z,13.92
2023-04-29T06:25:06.976Z,13.88
2023-04-29T06:27:26.019Z,13.90
2023-04-29T06:29:30.914Z,13.86
2023-04-29T06:31:35.878Z,13.85
2023-04-29T06:33:42.819Z,13.90
2023-04-29T06:35:50.663Z,13.91
2023-04-29T06:38:21.712Z,13.90
2023-04-29T06:40:49.974Z,13.96
2023-04-29T06:42:55.180Z,13.97
2023-04-29T06:45:13.135Z,14.16
2023-04-29T06:47:24.301Z,14.31
2023-04-29T06:49:48.602Z,14.40
2023-04-29T06:51:56.171Z,14.49
2023-04-29T06:54:04.626Z,14.52
2023-04-29T06:56:10.781Z,14.54
2023-04-29T06:58:16.116Z,14.54
2023-04-29T07:00:22.940Z,14.60
2023-04-29T07:02:28.056Z,14.67
2023-04-29T07:04:33.154Z,14.79
2023-04-29T07:06:38.099Z,14.71
2023-04-29T07:08:50.453Z,14.74
2023-04-29T07:10:59.412Z,14.70
2023-04-29T07:13:04.396Z,14.72
2023-04-29T07:15:10.746Z,14.64
2023-04-29T07:17:15.770Z,14.60
2023-04-29T07:19:20.983Z,14.65
2023-04-29T07:21:26.940Z,14.65
2023-04-29T07:23:32.382Z,14.68
2023-04-29T07:25:39.878Z,14.62
2023-04-29T07:27:45.267Z,14.57
2023-04-29T07:29:50.082Z,14.54
2023-04-29T07:31:55.054Z,14.52
2023-04-29T07:34:00.027Z,14.57
2023-04-29T07:36:05.305Z,14.63
2023-04-29T07:38:10.423Z,14.54
2023-04-29T07:40:15.318Z,14.46
2023-04-29T07:42:23.654Z,14.41
2023-04-29T07:44:29.266Z,14.35
2023-04-29T07:46:35.658Z,14.37
2023-04-29T07:48:41.936Z,14.37
2023-04-29T07:50:47.192Z,14.54
2023-04-29T07:52:52.108Z,14.60
2023-04-29T07:54:58.473Z,14.75
2023-04-29T07:57:03.795Z,15.01
2023-04-29T07:59:11.764Z,15.22
2023-04-29T08:01:17.177Z,15.27
2023-04-29T08:03:22.382Z,15.20
2023-04-29T08:05:28.285Z,15.13
2023-04-29T08:07:33.541Z,15.11
2023-04-29T08:09:38.523Z,15.24
2023-04-29T08:11:43.441Z,15.27
2023-04-29T08:13:51.229Z,15.31
2023-04-29T08:15:58.785Z,15.21
2023-04-29T08:18:03.867Z,15.03
2023-04-29T08:20:12.343Z,15.17
2023-04-29T08:22:17.392Z,15.21
2023-04-29T08:24:22.947Z,15.26
2023-04-29T08:26:28.180Z,15.18
2023-04-29T08:28:33.172Z,15.11
2023-04-29T08:30:41.105Z,15.12
2023-04-29T08:32:48.985Z,15.05
2023-04-29T08:34:54.165Z,14.88
2023-04-29T08:37:00.512Z,14.94
2023-04-29T08:39:05.435Z,15.03
2023-04-29T08:41:12.535Z,15.05
2023-04-29T08:43:17.968Z,15.09
2023-04-29T08:45:23.511Z,14.97
2023-04-29T08:47:29.352Z,15.00
2023-04-29T08:49:38.298Z,14.85
2023-04-29T08:51:43.394Z,14.86
2023-04-29T08:53:48.342Z,14.85
2023-04-29T08:55:53.552Z,14.85
2023-04-29T08:57:59.712Z,14.80
2023-04-29T09:00:05.898Z,14.87
2023-04-29T09:02:17.299Z,14.93
2023-04-29T09:04:37.431Z,14.91
2023-04-29T09:06:47.105Z,14.94
2023-04-29T09:08:52.473Z,15.00
2023-04-29T09:10:58.608Z,15.09
2023-04-29T09:13:03.628Z,15.16
2023-04-29T09:15:09.682Z,15.25
2023-04-29T09:17:16.456Z,15.33
2023-04-29T09:19:34.764Z,15.36
2023-04-29T09:21:39.895Z,15.27
2023-04-29T09:23:48.190Z,15.29
2023-04-29T09:25:59.423Z,15.34
2023-04-29T09:28:17.969Z,15.23
2023-04-29T09:30:23.017Z,15.19
2023-04-29T09:32:27.814Z,15.14
2023-04-29T09:34:37.566Z,15.33
2023-04-29T09:36:48.684Z,15.38
2023-04-29T09:38:59.362Z,15.46
2023-04-29T09:41:18.461Z,15.50
2023-04-29T09:43:24.206Z,15.61
2023-04-29T09:45:37.221Z,15.73
2023-04-29T09:47:42.176Z,15.94
2023-04-29T09:49:50.141Z,16.23
2023-04-29T09:51:59.680Z,16.25
2023-04-29T09:54:23.617Z,16.28
2023-04-29T09:56:31.048Z,16.42
2023-04-29T09:58:39.201Z,16.51
2023-04-29T10:00:45.003Z,16.81
2023-04-29T10:02:51.332Z,16.98
2023-04-29T10:04:58.096Z,17.09
2023-04-29T10:07:05.985Z,17.01
2023-04-29T10:09:16.520Z,17.22
2023-04-29T10:11:21.837Z,17.35
2023-04-29T10:13:28.505Z,17.32
2023-04-29T10:15:40.887Z,17.18
2023-04-29T10:17:49.646Z,17.05
2023-04-29T10:20:01.087Z,17.02
2023-04-29T10:22:11.928Z,17.15
2023-04-29T10:24:21.669Z,17.07
2023-04-29T10:26:30.142Z,16.98
2023-04-29T10:28:35.779Z,16.94
2023-04-29T10:30:43.860Z,16.79
2023-04-29T10:32:52.193Z,16.64
2023-04-29T10:34:59.447Z,16.65
2023-04-29T10:37:05.787Z,16.61
2023-04-29T10:39:17.299Z,16.77
2023-04-29T10:41:28.595Z,16.78
2023-04-29T10:43:34.663Z,16.83
2023-04-29T10:45:39.943Z,16.95
2023-04-29T10:48:12.044Z,17.18
2023-04-29T10:50:17.810Z,17.41
2023-04-29T10:52:22.654Z,17.60
2023-04-29T10:54:27.519Z,17.73
2023-04-29T10:56:42.831Z,17.67
2023-04-29T10:58:48.858Z,17.28
2023-04-29T11:00:53.814Z,16.90
2023-04-29T11:02:59.000Z,16.86
2023-04-29T11:05:11.184Z,16.90
2023-04-29T11:07:30.142Z,17.18
2023-04-29T11:09:38.937Z,17.21
2023-04-29T11:11:49.135Z,17.06
2023-04-29T11:13:54.048Z,16.90
2023-04-29T11:16:08.168Z,16.86
2023-04-29T11:18:14.823Z,16.98
2023-04-29T11:20:20.056Z,16.85
2023-04-29T11:22:28.638Z,16.69
2023-04-29T11:24:33.556Z,16.67
2023-04-29T11:26:39.171Z,16.48
2023-04-29T11:28:47.122Z,16.46
2023-04-29T11:30:53.265Z,16.59
2023-04-29T11:33:02.107Z,16.65
2023-04-29T11:35:14.592Z,16.74
2023-04-29T11:37:24.507Z,16.70
2023-04-29T11:39:37.725Z,16.65
2023-04-29T11:41:42.707Z,16.43
2023-04-29T11:43:58.575Z,16.26
2023-04-29T11:46:03.629Z,16.24
2023-04-29T11:48:08.791Z,16.37
2023-04-29T11:50:16.096Z,16.35
2023-04-29T11:52:21.096Z,16.23
2023-04-29T11:54:28.716Z,16.03
2023-04-29T11:56:33.656Z,16.03
2023-04-29T11:58:38.583Z,15.95
2023-04-29T12:00:46.366Z,15.90
2023-04-29T12:02:51.417Z,16.00
2023-04-29T12:04:57.842Z,16.04
2023-04-29T12:07:03.185Z,16.14
2023-04-29T12:09:08.852Z,16.29
2023-04-29T12:11:14.151Z,16.45
2023-04-29T12:13:18.831Z,16.42
2023-04-29T12:15:24.106Z,16.58
2023-04-29T12:17:31.765Z,16.52
2023-04-29T12:19:37.661Z,16.50
2023-04-29T12:21:52.537Z,16.45
2023-04-29T12:23:57.719Z,16.23
2023-04-29T12:26:03.454Z,16.28
2023-04-29T12:28:08.559Z,16.33
2023-04-29T12:30:14.470Z,16.25
2023-04-29T12:32:21.112Z,16.33
2023-04-29T12:34:31.732Z,16.21
2023-04-29T12:36:37.939Z,16.13
2023-04-29T12:38:42.785Z,16.03
2023-04-29T12:40:48.744Z,15.90
2023-04-29T12:42:53.776Z,15.81
2023-04-29T12:44:58.784Z,15.74
2023-04-29T12:47:11.056Z,15.69
2023-04-29T12:49:16.130Z,15.66
2023-04-29T12:51:23.593Z,15.66
2023-04-29T12:53:29.464Z,15.58
2023-04-29T12:55:36.170Z,15.54
2023-04-29T12:57:41.206Z,15.31
2023-04-29T12:59:46.108Z,15.31
2023-04-29T13:01:51.149Z,15.51
2023-04-29T13:03:56.283Z,15.50
2023-04-29T13:06:01.615Z,15.60
2023-04-29T13:08:09.188Z,15.68
2023-04-29T13:10:15.478Z,15.83
2023-04-29T13:12:20.457Z,16.05
2023-04-29T13:14:25.454Z,16.15
2023-04-29T13:16:30.490Z,16.24
2023-04-29T13:18:36.585Z,16.19
2023-04-29T13:20:43.922Z,16.30
2023-04-29T13:22:48.824Z,16.52
2023-04-29T13:24:56.679Z,16.75
2023-04-29T13:27:03.184Z,16.72
2023-04-29T13:29:08.374Z,16.73
2023-04-29T13:31:13.449Z,16.48
2023-04-29T13:33:18.631Z,16.49
2023-04-29T13:35:24.348Z,16.57
2023-04-29T13:37:29.316Z,16.65
2023-04-29T13:39:38.156Z,16.66
2023-04-29T13:41:46.700Z,16.52
2023-04-29T13:43:55.594Z,16.40
2023-04-29T13:46:02.677Z,16.31
2023-04-29T13:48:21.016Z,16.21
2023-04-29T13:55:04.277Z,15.96
2023-04-29T13:58:07.958Z,16.10
2023-04-29T13:59:50.624Z,16.16
2023-04-29T14:04:05.790Z,16.07
2023-04-29T14:06:10.903Z,16.00
2023-04-29T14:08:15.608Z,16.01
2023-04-29T14:10:20.836Z,15.95
2023-04-29T14:12:28.315Z,15.89
2023-04-29T14:14:33.320Z,15.89
2023-04-29T14:16:38.162Z,15.71
2023-04-29T14:18:43.094Z,15.55
2023-04-29T14:20:47.976Z,15.60
2023-04-29T14:22:53.250Z,15.68
2023-04-29T14:24:57.896Z,15.74
2023-04-29T14:27:02.803Z,15.79
2023-04-29T14:29:10.458Z,15.79
2023-04-29T14:31:17.378Z,15.79
2023-04-29T14:33:22.400Z,15.78
2023-04-29T14:35:28.927Z,15.58
2023-04-29T14:37:33.791Z,15.47
2023-04-29T14:39:38.923Z,15.42
2023-04-29T14:41:43.802Z,15.30
2023-04-29T14:43:48.798Z,15.32
2023-04-29T14:45:56.317Z,15.26
2023-04-29T14:48:01.597Z,15.19
2023-04-29T14:50:07.421Z,15.27
2023-04-29T14:52:12.696Z,15.38
2023-04-29T14:54:17.446Z,15.46
2023-04-29T14:56:22.499Z,15.57
2023-04-29T14:58:27.270Z,15.51
2023-04-29T15:00:32.261Z,15.48
2023-04-29T15:02:39.747Z,15.55
2023-04-29T15:04:46.487Z,15.66
2023-04-29T15:06:51.537Z,15.87
2023-04-29T15:08:57.166Z,16.10
2023-04-29T15:11:02.193Z,16.21
2023-04-29T15:13:07.160Z,16.27
2023-04-29T15:15:13.474Z,16.29
2023-04-29T15:17:18.777Z,16.29
2023-04-29T15:19:26.738Z,16.21
2023-04-29T15:21:32.549Z,16.15
2023-04-29T15:23:37.392Z,16.09
2023-04-29T15:25:42.263Z,16.27
2023-04-29T15:27:47.504Z,16.24
2023-04-29T15:29:54.729Z,16.38
2023-04-29T15:31:59.852Z,16.48
2023-04-29T15:34:04.812Z,16.41
2023-04-29T15:36:13.459Z,16.44
2023-04-29T15:38:18.582Z,16.36
2023-04-29T15:40:23.545Z,16.24
2023-04-29T15:42:28.607Z,16.18
2023-04-29T15:44:33.511Z,16.18
2023-04-29T15:46:38.371Z,16.07
2023-04-29T15:48:43.240Z,15.93
2023-04-29T15:50:48.237Z,15.86
2023-04-29T15:52:58.945Z,15.82
2023-04-29T15:55:04.211Z,15.81
2023-04-29T15:57:09.165Z,15.82
2023-04-29T15:59:14.040Z,15.84
2023-04-29T16:01:18.956Z,15.82
2023-04-29T16:03:24.065Z,15.70
2023-04-29T16:05:29.165Z,15.44
2023-04-29T16:07:35.483Z,15.35
2023-04-29T16:09:44.608Z,15.28
2023-04-29T16:11:49.743Z,15.24
2023-04-29T16:13:54.445Z,15.16
2023-04-29T16:15:59.496Z,15.15
2023-04-29T16:18:04.362Z,15.25
2023-04-29T16:20:11.168Z,15.29
2023-04-29T16:22:16.050Z,15.43
2023-04-29T16:24:21.084Z,15.52
2023-04-29T16:26:28.695Z,15.53
2023-04-29T16:28:33.666Z,15.55
2023-04-29T16:30:39.129Z,15.56
2023-04-29T16:32:44.480Z,15.55
2023-04-29T16:34:49.371Z,15.60
2023-04-29T16:36:54.482Z,15.51
2023-04-29T16:38:59.640Z,15.47
2023-04-29T16:41:07.470Z,15.45
2023-04-29T16:43:16.672Z,15.49
2023-04-29T16:45:23.695Z,15.49
2023-04-29T16:47:28.923Z,15.55
2023-04-29T16:49:34.866Z,15.58
2023-04-29T16:51:39.789Z,15.55
2023-04-29T16:53:45.888Z,15.56
2023-04-29T16:55:51.023Z,15.61
2023-04-29T16:57:55.946Z,15.66
2023-04-29T17:00:04.710Z,15.66
2023-04-29T17:02:09.651Z,15.71
2023-04-29T17:04:14.648Z,15.71
2023-04-29T17:06:19.767Z,15.73
2023-04-29T17:08:24.512Z,15.73
2023-04-29T17:10:29.781Z,15.74
2023-04-29T17:12:35.100Z,15.69
2023-04-29T17:14:43.423Z,15.65
2023-04-29T17:16:50.911Z,15.67
2023-04-29T17:18:56.326Z,15.65
2023-04-29T17:21:02.958Z,15.63
2023-04-29T17:23:08.363Z,15.65
2023-04-29T17:25:13.926Z,15.65
2023-04-29T17:27:18.922Z,15.51
2023-04-29T17:29:23.858Z,15.47
2023-04-29T17:31:45.128Z,15.45
2023-04-29T17:33:55.548Z,15.47
2023-04-29T17:36:01.488Z,15.26
2023-04-29T17:38:06.504Z,15.25
2023-04-29T17:40:12.469Z,15.24
2023-04-29T17:42:17.449Z,15.27
2023-04-29T17:44:23.635Z,15.11
2023-04-29T17:46:28.811Z,15.11
2023-04-29T17:48:33.627Z,15.08
2023-04-29T17:50:41.709Z,15.00
2023-04-29T17:52:46.786Z,14.95
2023-04-29T17:54:51.730Z,14.91
2023-04-29T17:56:57.155Z,14.94
2023-04-29T17:59:02.099Z,14.95
2023-04-29T18:01:08.301Z,14.93
2023-04-29T18:03:13.426Z,14.92
2023-04-29T18:05:18.135Z,14.92
2023-04-29T18:07:25.598Z,14.91
2023-04-29T18:09:30.696Z,14.85
2023-04-29T18:11:35.772Z,14.88
2023-04-29T18:13:40.675Z,14.88
2023-04-29T18:15:45.786Z,14.86
2023-04-29T18:17:51.215Z,14.86
2023-04-29T18:19:56.321Z,14.84
2023-04-29T18:22:02.927Z,14.86
2023-04-29T18:24:10.476Z,14.88
2023-04-29T18:26:15.481Z,14.85
2023-04-29T18:28:25.289Z,14.87
2023-04-29T18:30:30.680Z,14.91
2023-04-29T18:32:35.574Z,14.74
2023-04-29T18:34:40.683Z,14.64
2023-04-29T18:36:45.582Z,14.56
2023-04-29T18:38:50.440Z,14.50
2023-04-29T18:40:57.895Z,14.52
2023-04-29T18:43:02.900Z,14.48
2023-04-29T18:45:09.176Z,14.42
2023-04-29T18:47:14.294Z,14.34
2023-04-29T18:49:19.160Z,14.28
2023-04-29T18:51:24.253Z,14.18
2023-04-29T18:53:30.148Z,14.19
2023-04-29T18:55:35.485Z,14.16
2023-04-29T18:57:43.645Z,14.27
2023-04-29T18:59:48.613Z,14.30
2023-04-29T19:01:53.760Z,14.37
2023-04-29T19:03:58.476Z,14.33
2023-04-29T19:06:03.970Z,14.33
2023-04-29T19:08:09.596Z,14.36
2023-04-29T19:10:14.608Z,14.37
2023-04-29T19:12:19.538Z,14.25
2023-04-29T19:14:27.029Z,14.30
2023-04-29T19:16:32.574Z,14.30
2023-04-29T19:18:38.908Z,14.33
2023-04-29T19:20:44.016Z,14.28
2023-04-29T19:22:49.058Z,14.17
2023-04-29T19:24:53.914Z,14.17
2023-04-29T19:26:58.828Z,14.21
2023-04-29T19:29:03.896Z,14.27
2023-04-29T19:31:11.980Z,14.25
2023-04-29T19:33:17.420Z,14.23
2023-04-29T19:35:22.471Z,14.23
2023-04-29T19:37:27.320Z,14.14
2023-04-29T19:39:32.288Z,14.09
2023-04-29T19:41:38.560Z,14.09
2023-04-29T19:43:43.454Z,14.09
2023-04-29T19:45:48.400Z,14.14
2023-04-29T19:47:55.943Z,14.17
2023-04-29T19:50:00.790Z,14.12
2023-04-29T19:52:07.012Z,13.98
2023-04-29T19:54:12.024Z,13.89
2023-04-29T19:56:16.909Z,13.92
2023-04-29T19:58:21.859Z,13.94
2023-04-29T20:00:27.401Z,14.02
2023-04-29T20:02:33.075Z,14.04
2023-04-29T20:04:40.863Z,14.03
2023-04-29T20:06:46.381Z,13.96
2023-04-29T20:08:51.839Z,13.85
2023-04-29T20:10:57.068Z,13.87
2023-04-29T20:13:02.217Z,13.93
2023-04-29T20:15:08.403Z,13.91
2023-04-29T20:17:13.719Z,13.86
2023-04-29T20:19:18.367Z,13.84
2023-04-29T20:21:26.330Z,13.78
2023-04-29T20:23:31.398Z,13.85
2023-04-29T20:25:36.282Z,13.88
2023-04-29T20:27:41.825Z,13.92
2023-04-29T20:29:47.362Z,13.95
2023-04-29T20:31:52.376Z,13.94
2023-04-29T20:33:57.071Z,13.92
2023-04-29T20:36:06.613Z,13.80
2023-04-29T20:38:14.378Z,13.72
2023-04-29T20:40:19.305Z,13.64
2023-04-29T20:42:24.257Z,13.68
2023-04-29T20:44:29.758Z,13.71
2023-04-29T20:46:34.736Z,13.75
2023-04-29T20:48:40.093Z,13.75
2023-04-29T20:50:45.345Z,13.78
2023-04-29T20:52:50.496Z,13.78
2023-04-29T20:54:58.932Z,13.76
2023-04-29T20:57:05.749Z,13.61
2023-04-29T20:59:10.854Z,13.62
2023-04-29T21:01:15.910Z,13.54
2023-04-29T21:03:22.437Z,13.45
2023-04-29T21:05:27.084Z,13.38
2023-04-29T21:07:32.071Z,13.28
2023-04-29T21:09:37.237Z,13.33
2023-04-29T21:11:44.940Z,13.41
2023-04-29T21:13:51.537Z,13.42
2023-04-29T21:15:56.452Z,13.45
2023-04-29T21:18:01.379Z,13.44
2023-04-29T21:20:07.959Z,13.51
2023-04-29T21:22:12.814Z,13.57
2023-04-29T21:24:17.971Z,13.62
2023-04-29T21:26:22.860Z,13.63
2023-04-29T21:28:30.511Z,13.55
2023-04-29T21:30:35.410Z,13.61
2023-04-29T21:32:40.489Z,13.62
2023-04-29T21:34:45.335Z,13.64
2023-04-29T21:36:50.316Z,13.54
2023-04-29T21:38:55.850Z,13.51
2023-04-29T21:41:03.555Z,13.55
2023-04-29T21:43:08.940Z,13.51
2023-04-29T21:45:17.912Z,13.55
2023-04-29T21:47:23.391Z,13.55
2023-04-29T21:49:28.562Z,13.52
2023-04-29T21:51:34.592Z,13.51
2023-04-29T21:53:40.483Z,13.53
2023-04-29T21:55:45.446Z,13.62
2023-04-29T21:57:50.414Z,13.66
2023-04-29T21:59:55.532Z,13.63
2023-04-29T22:02:14.344Z,13.53
2023-04-29T22:04:19.950Z,13.49
2023-04-29T22:06:24.938Z,13.48
2023-04-29T22:08:29.708Z,13.44
2023-04-29T22:10:34.666Z,13.34
2023-04-29T22:12:42.032Z,13.25
2023-04-29T22:14:47.193Z,13.33
2023-04-29T22:16:51.901Z,13.32
2023-04-29T22:18:59.987Z,13.39
2023-04-29T22:21:04.895Z,13.35
2023-04-29T22:23:09.815Z,13.39
2023-04-29T22:25:14.743Z,13.41
2023-04-29T22:27:19.669Z,13.36
2023-04-29T22:29:24.648Z,13.37
2023-04-29T22:31:29.803Z,13.36
2023-04-29T22:33:35.238Z,13.35
2023-04-29T22:35:42.737Z,13.27
2023-04-29T22:37:47.631Z,13.14
2023-04-29T22:39:52.844Z,13.15
2023-04-29T22:41:57.589Z,13.08
2023-04-29T22:44:02.969Z,13.12
2023-04-29T22:46:08.047Z,13.15
2023-04-29T22:48:12.941Z,13.11
2023-04-29T22:50:17.944Z,13.15
2023-04-29T22:52:27.195Z,13.15
2023-04-29T22:54:32.180Z,13.16
2023-04-29T22:56:37.105Z,13.08
2023-04-29T22:58:42.361Z,13.10
2023-04-29T23:00:47.644Z,13.07
2023-04-29T23:02:52.610Z,13.06
2023-04-29T23:04:58.104Z,13.06
2023-04-29T23:07:03.054Z,13.12
2023-04-29T23:09:10.637Z,13.13
2023-04-29T23:11:15.491Z,13.13
2023-04-29T23:13:20.872Z,13.11
2023-04-29T23:15:25.950Z,13.13
2023-04-29T23:17:31.036Z,13.10
2023-04-29T23:19:36.321Z,13.12
2023-04-29T23:21:41.619Z,13.12
2023-04-29T23:23:46.506Z,13.10
2023-04-29T23:25:54.172Z,13.05
2023-04-29T23:27:59.166Z,13.10
2023-04-29T23:30:04.083Z,13.13
2023-04-29T23:32:08.964Z,13.02
2023-04-29T23:34:18.124Z,13.06
2023-04-29T23:36:23.071Z,13.10
2023-04-29T23:38:28.140Z,13.11
2023-04-29T23:40:32.828Z,13.10
2023-04-29T23:42:44.063Z,13.12
2023-04-29T23:44:48.959Z,13.15
2023-04-29T23:46:54.134Z,13.11
2023-04-29T23:48:59.040Z,13.12
2023-04-29T23:51:03.962Z,13.09
2023-04-29T23:53:09.068Z,13.08
2023-04-29T23:55:13.948Z,13.09
2023-04-29T23:57:19.005Z,13.03
2023-04-29T23:59:26.505Z,13.02
